createdAt,value
2018-04-29T00:01:00.031Z,100861.25
2018-04-29T00:06:00.983Z,100880.07
2018-04-29T00:11:01.958Z,100882.66
2018-04-29T00:16:02.941Z,100875.76
2018-04-29T00:21:03.956Z,100881.00
2018-04-29T00:26:04.958Z,100871.36
2018-04-29T00:31:05.939Z,100857.95
2018-04-29T00:36:06.909Z,100858.61
2018-04-29T00:41:07.888Z,100878.39
2018-04-29T00:46:08.904Z,100867.02
2018-04-29T00:51:09.876Z,100864.04
2018-04-29T00:56:10.847Z,100863.16
2018-04-29T01:01:11.808Z,100860.73
2018-04-29T01:06:12.791Z,100863.20
2018-04-29T01:11:13.763Z,100858.41
2018-04-29T01:16:14.736Z,100860.69
2018-04-29T01:21:15.729Z,100871.36
2018-04-29T01:26:16.733Z,100868.92
2018-04-29T01:31:17.693Z,100873.98
2018-04-29T01:36:18.671Z,100867.58
2018-04-29T01:41:19.636Z,100871.12
2018-04-29T01:46:20.586Z,100876.72
2018-04-29T01:51:21.528Z,100876.63
2018-04-29T01:56:22.521Z,100885.31
2018-04-29T02:01:23.476Z,100892.46
2018-04-29T02:06:24.441Z,100889.83
2018-04-29T02:11:25.388Z,100890.46
2018-04-29T02:16:26.350Z,100883.83
2018-04-29T02:21:27.334Z,100881.73
2018-04-29T02:26:28.299Z,100898.11
2018-04-29T02:31:29.306Z,100898.86
2018-04-29T02:36:30.230Z,100903.15
2018-04-29T02:41:31.212Z,100902.14
2018-04-29T02:46:32.186Z,100904.73
2018-04-29T02:51:33.160Z,100897.06
2018-04-29T02:56:34.113Z,100904.09
2018-04-29T03:01:35.063Z,100903.39
2018-04-29T03:06:36.004Z,100900.59
2018-04-29T03:11:36.964Z,100883.92
2018-04-29T03:16:37.928Z,100893.08
2018-04-29T03:21:38.912Z,100885.00
2018-04-29T03:26:39.864Z,100884.98
2018-04-29T03:31:40.812Z,100885.14
2018-04-29T03:36:41.772Z,100901.23
2018-04-29T03:41:42.717Z,100908.20
2018-04-29T03:46:43.674Z,100913.10
2018-04-29T03:51:44.605Z,100912.18
2018-04-29T03:56:45.556Z,100907.58
2018-04-29T04:01:58.960Z,100917.16
2018-04-29T04:06:59.964Z,100919.54
2018-04-29T04:12:00.920Z,100905.03
2018-04-29T04:17:01.898Z,100919.02
2018-04-29T04:22:02.866Z,100926.45
2018-04-29T04:27:03.851Z,100928.23
2018-04-29T04:32:04.807Z,100925.21
2018-04-29T04:37:05.780Z,100920.65
2018-04-29T04:42:06.753Z,100911.69
2018-04-29T04:47:07.712Z,100906.70
2018-04-29T04:52:08.660Z,100920.67
2018-04-29T04:57:09.614Z,100903.30
2018-04-29T05:02:10.594Z,100908.28
2018-04-29T05:07:11.540Z,100921.52
2018-04-29T05:12:12.507Z,100941.45
2018-04-29T05:17:13.482Z,100950.05
2018-04-29T05:22:14.638Z,100950.14
2018-04-29T05:27:15.606Z,100950.53
2018-04-29T05:32:16.600Z,100965.50
2018-04-29T05:37:17.540Z,100967.33
2018-04-29T05:42:18.523Z,100976.22
2018-04-29T05:47:19.986Z,100983.42
2018-04-29T05:52:20.960Z,101002.27
2018-04-29T05:57:22.250Z,100993.75
2018-04-29T06:02:23.238Z,100978.01
2018-04-29T06:07:24.196Z,100977.22
2018-04-29T06:12:25.187Z,100989.43
2018-04-29T06:17:26.130Z,100983.73
2018-04-29T06:22:27.127Z,100979.90
2018-04-29T06:27:28.099Z,100989.43
2018-04-29T06:32:29.111Z,100997.62
2018-04-29T06:37:30.071Z,100993.65
2018-04-29T06:42:31.060Z,100986.56
2018-04-29T06:47:32.004Z,100985.84
2018-04-29T06:52:32.963Z,100979.88
2018-04-29T06:57:33.930Z,100985.03
2018-04-29T07:02:34.882Z,100980.63
2018-04-29T07:07:35.850Z,100995.44
2018-04-29T07:12:36.813Z,100997.93
2018-04-29T07:17:37.786Z,101022.27
2018-04-29T07:22:38.812Z,101017.36
2018-04-29T07:27:39.805Z,101014.62
2018-04-29T07:32:40.825Z,101010.05
2018-04-29T07:37:41.856Z,101024.05
2018-04-29T07:42:42.825Z,101022.75
2018-04-29T07:47:43.828Z,101023.14
2018-04-29T07:52:44.855Z,101029.73
2018-04-29T07:57:45.801Z,101030.86
2018-04-29T08:02:46.777Z,101021.45
2018-04-29T08:07:47.767Z,101015.67
2018-04-29T08:12:48.938Z,101003.06
2018-04-29T08:17:49.905Z,100996.80
2018-04-29T08:22:51.559Z,101010.18
2018-04-29T08:27:52.536Z,101007.11
2018-04-29T08:32:53.510Z,101009.58
2018-04-29T08:37:54.552Z,101005.47
2018-04-29T08:42:55.568Z,101002.16
2018-04-29T08:47:56.563Z,100989.06
2018-04-29T08:52:57.547Z,100995.67
2018-04-29T08:57:59.383Z,101001.71
2018-04-29T09:03:00.340Z,100999.81
2018-04-29T09:08:01.363Z,101000.35
2018-04-29T09:13:02.359Z,101019.34
2018-04-29T09:18:03.360Z,101026.27
2018-04-29T09:23:04.416Z,101020.30
2018-04-29T09:28:05.411Z,101008.30
2018-04-29T09:33:06.391Z,101022.22
2018-04-29T09:38:07.392Z,101028.48
2018-04-29T09:43:08.392Z,101050.87
2018-04-29T09:48:09.369Z,101046.52
2018-04-29T09:53:10.361Z,101043.34
2018-04-29T09:58:11.306Z,101032.81
2018-04-29T10:03:12.274Z,101038.70
2018-04-29T10:08:13.280Z,101031.79
2018-04-29T10:13:14.253Z,101018.62
2018-04-29T10:18:15.261Z,101024.88
2018-04-29T10:23:16.279Z,101016.56
2018-04-29T10:28:17.250Z,101013.92
2018-04-29T10:33:18.252Z,101011.61
2018-04-29T10:38:19.222Z,101013.09
2018-04-29T10:43:20.199Z,101014.41
2018-04-29T10:48:21.215Z,101017.98
2018-04-29T10:53:22.174Z,101009.09
2018-04-29T10:58:23.148Z,101002.42
2018-04-29T11:03:24.145Z,100989.91
2018-04-29T11:08:25.152Z,100987.29
2018-04-29T11:13:26.141Z,100979.89
2018-04-29T11:18:27.142Z,100974.86
2018-04-29T11:23:28.169Z,100973.88
2018-04-29T11:28:29.170Z,100966.30
2018-04-29T11:33:30.180Z,100963.93
2018-04-29T11:38:38.103Z,100964.66
2018-04-29T11:43:39.071Z,100933.89
2018-04-29T11:48:40.058Z,100945.43
2018-04-29T11:53:41.040Z,100958.15
2018-04-29T11:58:42.020Z,100950.39
2018-04-29T12:03:43.009Z,100948.77
2018-04-29T12:08:43.964Z,100943.56
2018-04-29T12:13:44.960Z,100943.22
2018-04-29T12:18:45.939Z,100936.45
2018-04-29T12:23:46.962Z,100925.34
2018-04-29T12:28:47.924Z,100926.02
2018-04-29T12:33:48.885Z,100944.19
2018-04-29T12:38:49.963Z,100926.23
2018-04-29T12:43:50.939Z,100929.91
2018-04-29T12:48:51.943Z,100946.88
2018-04-29T12:53:52.937Z,100934.09
2018-04-29T12:58:53.912Z,100939.94
2018-04-29T13:03:54.906Z,100915.56
2018-04-29T13:08:55.881Z,100892.60
2018-04-29T13:13:56.912Z,100904.70
2018-04-29T13:18:57.922Z,100904.22
2018-04-29T13:23:58.988Z,100893.59
2018-04-29T13:28:59.959Z,100887.39
2018-04-29T13:34:00.938Z,100896.20
2018-04-29T13:39:01.920Z,100884.31
2018-04-29T13:44:02.899Z,100891.19
2018-04-29T13:49:03.866Z,100869.91
2018-04-29T13:54:04.865Z,100880.98
2018-04-29T13:59:05.877Z,100879.56
2018-04-29T14:04:06.870Z,100883.88
2018-04-29T14:09:07.857Z,100894.48
2018-04-29T14:14:08.855Z,100872.66
2018-04-29T14:19:09.877Z,100855.53
2018-04-29T14:24:10.917Z,100852.38
2018-04-29T14:29:11.937Z,100853.40
2018-04-29T14:34:12.945Z,100827.59
2018-04-29T14:39:13.918Z,100821.97
2018-04-29T14:44:14.918Z,100818.48
2018-04-29T14:49:15.885Z,100797.97
2018-04-29T14:54:16.880Z,100800.09
2018-04-29T14:59:17.871Z,100803.55
2018-04-29T15:04:18.884Z,100797.98
2018-04-29T15:09:19.849Z,100801.94
2018-04-29T15:14:20.851Z,100786.33
2018-04-29T15:19:21.848Z,100788.41
2018-04-29T15:24:22.941Z,100790.09
2018-04-29T15:29:23.932Z,100778.23
2018-04-29T15:34:24.956Z,100790.73
2018-04-29T15:39:25.977Z,100779.21
2018-04-29T15:44:26.981Z,100773.33
2018-04-29T15:49:27.977Z,100764.52
2018-04-29T15:54:28.950Z,100786.19
2018-04-29T15:59:29.928Z,100782.53
2018-04-29T16:04:30.917Z,100716.78
2018-04-29T16:09:31.911Z,100727.73
2018-04-29T16:14:32.913Z,100733.50
2018-04-29T16:19:33.939Z,100734.12
2018-04-29T16:24:35.023Z,100722.63
2018-04-29T16:29:36.013Z,100703.71
2018-04-29T16:34:37.127Z,100713.70
2018-04-29T16:39:38.143Z,100725.16
2018-04-29T16:44:39.167Z,100721.44
2018-04-29T16:49:40.233Z,100713.34
2018-04-29T16:54:41.314Z,100697.78
2018-04-29T16:59:42.362Z,100694.73
2018-04-29T17:04:43.401Z,100687.88
2018-04-29T17:09:44.379Z,100679.48
2018-04-29T17:14:45.366Z,100662.68
2018-04-29T17:19:46.380Z,100660.22
2018-04-29T17:24:47.463Z,100654.46
2018-04-29T17:29:48.489Z,100648.61
2018-04-29T17:34:49.538Z,100647.78
2018-04-29T17:39:50.585Z,100664.67
2018-04-29T17:44:51.628Z,100654.20
2018-04-29T17:49:52.613Z,100651.81
2018-04-29T17:54:53.673Z,100652.23
2018-04-29T17:59:54.673Z,100653.97
2018-04-29T18:04:55.687Z,100657.39
2018-04-29T18:09:56.702Z,100635.95
2018-04-29T18:14:57.721Z,100624.76
2018-04-29T18:19:58.759Z,100614.58
2018-04-29T18:24:59.796Z,100613.66
2018-04-29T18:30:00.902Z,100606.61
2018-04-29T18:35:01.965Z,100614.45
2018-04-29T18:40:03.073Z,100611.41
2018-04-29T18:45:04.092Z,100610.05
2018-04-29T18:50:05.113Z,100621.61
2018-04-29T18:55:06.140Z,100623.06
2018-04-29T19:00:07.177Z,100614.55
2018-04-29T19:05:08.209Z,100616.80
2018-04-29T19:10:09.266Z,100606.61
2018-04-29T19:15:10.344Z,100604.28
2018-04-29T19:20:11.408Z,100589.17
2018-04-29T19:25:12.469Z,100590.28
2018-04-29T19:30:13.557Z,100598.06
2018-04-29T19:35:21.719Z,100589.08
2018-04-29T19:40:22.758Z,100584.30
2018-04-29T19:45:23.921Z,100596.31
2018-04-29T19:50:24.936Z,100572.68
2018-04-29T19:55:25.972Z,100559.64
2018-04-29T20:00:27.075Z,100560.13
2018-04-29T20:05:28.101Z,100553.40
2018-04-29T20:10:29.119Z,100554.03
2018-04-29T20:15:30.151Z,100553.64
2018-04-29T20:20:31.145Z,100537.45
2018-04-29T20:25:32.198Z,100538.84
2018-04-29T20:30:33.215Z,100543.38
2018-04-29T20:35:34.290Z,100539.29
2018-04-29T20:40:35.333Z,100523.91
2018-04-29T20:45:36.347Z,100518.73
2018-04-29T20:50:37.373Z,100512.88
2018-04-29T20:55:38.355Z,100514.15
2018-04-29T21:00:39.363Z,100506.77
2018-04-29T21:05:40.389Z,100506.86
2018-04-29T21:10:41.414Z,100500.22
2018-04-29T21:15:42.402Z,100487.98
2018-04-29T21:20:43.367Z,100478.23
2018-04-29T21:25:44.457Z,100471.00
2018-04-29T21:30:45.466Z,100460.68
2018-04-29T21:35:46.491Z,100455.37
2018-04-29T21:40:47.459Z,100456.20
2018-04-29T21:45:48.473Z,100454.33
2018-04-29T21:50:49.487Z,100443.63
2018-04-29T21:55:50.474Z,100430.42
2018-04-29T22:00:51.491Z,100416.23
2018-04-29T22:05:52.501Z,100416.99
2018-04-29T22:10:53.512Z,100398.16
2018-04-29T22:15:54.500Z,100397.69
2018-04-29T22:20:55.476Z,100388.27
2018-04-29T22:25:57.021Z,100374.59
2018-04-29T22:30:58.245Z,100365.42
2018-04-29T22:35:59.502Z,100363.08
2018-04-29T22:41:00.529Z,100358.73
2018-04-29T22:46:01.512Z,100355.08
2018-04-29T22:51:02.519Z,100352.50
2018-04-29T22:56:03.510Z,100347.09
2018-04-29T23:01:04.463Z,100338.58
2018-04-29T23:06:05.479Z,100322.64
2018-04-29T23:11:06.435Z,100331.37
2018-04-29T23:16:07.423Z,100333.77
2018-04-29T23:21:08.365Z,100329.30
2018-04-29T23:26:09.380Z,100314.67
2018-04-29T23:31:10.353Z,100307.19
2018-04-29T23:36:11.345Z,100309.67
2018-04-29T23:41:12.332Z,100298.13
2018-04-29T23:46:13.291Z,100294.66
2018-04-29T23:51:14.259Z,100293.95
2018-04-29T23:56:15.240Z,100280.99
